createdAt,value
2022-11-29T00:00:54.578Z,31.15
2022-11-29T00:03:21.081Z,29.42
2022-11-29T00:05:47.430Z,28.95
2022-11-29T00:08:13.752Z,27.98
2022-11-29T00:10:40.021Z,29.60
2022-11-29T00:13:06.322Z,28.83
2022-11-29T00:15:35.525Z,29.52
2022-11-29T00:18:02.110Z,30.52
2022-11-29T00:20:28.412Z,27.95
2022-11-29T00:22:54.741Z,30.73
2022-11-29T00:25:21.050Z,30.10
2022-11-29T00:27:47.505Z,30.50
2022-11-29T00:30:14.171Z,30.38
2022-11-29T00:32:40.490Z,30.90
2022-11-29T00:35:09.863Z,29.08
2022-11-29T00:37:36.362Z,31.60
2022-11-29T00:40:03.601Z,27.42
2022-11-29T00:42:29.860Z,30.40
2022-11-29T00:44:56.172Z,27.30
2022-11-29T00:47:22.564Z,28.08
2022-11-29T00:49:48.896Z,28.27
2022-11-29T00:52:15.186Z,26.77
2022-11-29T00:54:41.822Z,28.65
2022-11-29T00:57:08.342Z,27.88
2022-11-29T00:59:34.652Z,27.33
2022-11-29T01:02:01.042Z,28.48
2022-11-29T01:04:27.404Z,29.75
2022-11-29T01:06:53.721Z,29.05
2022-11-29T01:09:19.994Z,29.50
2022-11-29T01:11:46.285Z,28.95
2022-11-29T01:14:12.596Z,29.23
2022-11-29T01:16:39.027Z,26.88
2022-11-29T01:19:07.209Z,29.35
2022-11-29T01:21:33.854Z,28.98
2022-11-29T01:24:00.435Z,27.48
2022-11-29T01:26:28.024Z,26.83
2022-11-29T01:28:54.811Z,28.88
2022-11-29T01:31:22.577Z,28.30
2022-11-29T01:33:52.820Z,28.17
2022-11-29T01:36:19.077Z,26.95
2022-11-29T01:38:45.917Z,27.17
2022-11-29T01:41:14.004Z,25.98
2022-11-29T01:44:00.780Z,27.13
2022-11-29T01:46:28.123Z,26.17
2022-11-29T01:48:57.456Z,26.13
2022-11-29T01:51:24.560Z,25.70
2022-11-29T01:53:50.837Z,27.63
2022-11-29T01:56:17.138Z,25.88
2022-11-29T01:58:44.959Z,26.25
2022-11-29T02:01:11.725Z,24.00
2022-11-29T02:03:38.087Z,25.25
2022-11-29T02:06:05.258Z,26.65
2022-11-29T02:08:36.689Z,24.88
2022-11-29T02:11:29.256Z,26.27
2022-11-29T02:14:11.517Z,25.75
2022-11-29T02:16:41.946Z,26.45
2022-11-29T02:19:27.099Z,24.80
2022-11-29T02:21:57.129Z,24.35
2022-11-29T02:24:26.288Z,23.98
2022-11-29T02:26:55.536Z,24.30
2022-11-29T02:29:30.926Z,24.45
2022-11-29T02:32:09.196Z,24.10
2022-11-29T02:34:53.745Z,23.60
2022-11-29T02:37:38.845Z,23.42
2022-11-29T02:40:20.440Z,22.40
2022-11-29T02:43:02.095Z,26.15
2022-11-29T02:45:31.522Z,25.27
2022-11-29T02:48:13.286Z,25.20
2022-11-29T02:50:46.554Z,24.25
2022-11-29T02:53:31.993Z,25.60
2022-11-29T02:56:04.500Z,26.30
2022-11-29T02:58:36.876Z,25.92
2022-11-29T03:01:09.470Z,25.17
2022-11-29T03:03:38.622Z,24.25
2022-11-29T03:06:04.928Z,24.33
2022-11-29T03:08:40.260Z,24.45
2022-11-29T03:11:11.718Z,24.92
2022-11-29T03:13:53.317Z,25.30
2022-11-29T03:16:19.571Z,23.40
2022-11-29T03:19:05.166Z,24.40
2022-11-29T03:21:39.545Z,22.83
2022-11-29T03:24:09.586Z,23.35
2022-11-29T03:26:41.196Z,23.02
2022-11-29T03:29:11.421Z,22.17
2022-11-29T03:31:42.926Z,23.45
2022-11-29T03:34:09.262Z,23.08
2022-11-29T03:36:51.053Z,23.83
2022-11-29T03:39:18.704Z,22.02
2022-11-29T03:41:59.835Z,22.20
2022-11-29T03:44:28.573Z,24.08
2022-11-29T03:47:02.089Z,24.75
2022-11-29T03:49:45.891Z,22.73
2022-11-29T03:52:16.409Z,24.75
2022-11-29T03:55:03.048Z,22.85
2022-11-29T03:57:48.150Z,24.05
2022-11-29T04:00:15.389Z,24.60
2022-11-29T04:03:00.934Z,22.30
2022-11-29T04:05:39.473Z,23.55
2022-11-29T04:08:11.824Z,24.23
2022-11-29T04:10:49.081Z,24.55
2022-11-29T04:13:24.116Z,21.30
2022-11-29T04:16:07.466Z,20.75
2022-11-29T04:18:39.901Z,21.60
2022-11-29T04:21:15.377Z,21.27
2022-11-29T04:23:41.608Z,21.15
2022-11-29T04:26:30.878Z,18.60
2022-11-29T04:29:05.774Z,20.92
2022-11-29T04:31:32.046Z,20.20
2022-11-29T04:34:01.453Z,19.33
2022-11-29T04:36:30.788Z,19.13
2022-11-29T04:39:21.086Z,19.58
2022-11-29T04:41:47.363Z,19.38
2022-11-29T04:44:13.660Z,21.00
2022-11-29T04:46:40.002Z,20.63
2022-11-29T04:49:09.446Z,20.45
2022-11-29T04:51:51.149Z,20.42
2022-11-29T04:54:36.339Z,20.73
2022-11-29T04:57:11.777Z,20.80
2022-11-29T04:59:58.346Z,20.00
2022-11-29T05:02:43.455Z,21.17
2022-11-29T05:05:25.163Z,19.63
2022-11-29T05:08:00.289Z,21.83
2022-11-29T05:10:41.569Z,21.35
2022-11-29T05:13:10.966Z,18.70
2022-11-29T05:16:02.465Z,22.20
2022-11-29T05:18:43.868Z,18.70
2022-11-29T05:21:24.872Z,18.10
2022-11-29T05:26:29.035Z,18.65
2022-11-29T05:29:04.227Z,17.80
2022-11-29T05:31:49.003Z,17.45
2022-11-29T05:34:38.959Z,16.17
2022-11-29T05:37:24.011Z,17.48
2022-11-29T05:40:09.218Z,19.42
2022-11-29T05:42:44.035Z,19.08
2022-11-29T05:45:29.355Z,17.92
2022-11-29T05:47:58.482Z,17.67
2022-11-29T05:50:32.056Z,17.73
2022-11-29T05:53:07.872Z,20.02
2022-11-29T05:55:50.576Z,19.48
2022-11-29T05:58:19.857Z,18.95
2022-11-29T06:00:50.617Z,18.50
2022-11-29T06:03:23.025Z,17.90
2022-11-29T06:06:09.550Z,16.40
2022-11-29T06:08:48.012Z,17.92
2022-11-29T06:11:21.964Z,18.00
2022-11-29T06:14:00.481Z,18.77
2022-11-29T06:16:40.389Z,21.23
2022-11-29T06:19:25.177Z,17.67
2022-11-29T06:22:09.826Z,17.50
2022-11-29T06:24:39.425Z,17.40
2022-11-29T06:27:05.714Z,16.92
2022-11-29T06:29:41.653Z,15.18
2022-11-29T06:32:26.491Z,17.38
2022-11-29T06:34:56.503Z,15.30
2022-11-29T06:37:31.389Z,13.55
2022-11-29T06:39:57.876Z,15.70
2022-11-29T06:42:24.141Z,15.35
2022-11-29T06:44:50.614Z,15.65
2022-11-29T06:47:26.046Z,15.43
2022-11-29T06:49:55.080Z,15.23
2022-11-29T06:52:36.846Z,14.98
2022-11-29T06:55:10.506Z,14.05
2022-11-29T06:57:48.969Z,13.77
2022-11-29T07:00:16.136Z,13.65
2022-11-29T07:03:00.755Z,15.10
2022-11-29T07:05:31.595Z,13.10
2022-11-29T07:10:24.714Z,15.18
2022-11-29T07:12:51.611Z,16.33
2022-11-29T07:15:19.240Z,16.65
2022-11-29T07:18:04.223Z,16.13
2022-11-29T07:20:42.696Z,15.18
2022-11-29T07:23:15.966Z,16.48
2022-11-29T07:26:00.788Z,14.32
2022-11-29T07:28:36.314Z,14.25
2022-11-29T07:31:15.017Z,14.05
2022-11-29T07:34:00.375Z,14.02
2022-11-29T07:36:32.668Z,15.30
2022-11-29T07:39:11.196Z,13.20
2022-11-29T07:41:43.619Z,15.65
2022-11-29T07:44:17.214Z,13.63
2022-11-29T07:46:43.676Z,13.23
2022-11-29T07:49:11.266Z,17.42
2022-11-29T07:51:37.568Z,13.05
2022-11-29T07:54:04.264Z,13.93
2022-11-29T07:56:30.578Z,12.25
2022-11-29T07:58:56.975Z,12.30
2022-11-29T08:01:23.348Z,11.73
2022-11-29T08:03:49.740Z,11.25
2022-11-29T08:06:16.061Z,10.68
2022-11-29T08:08:44.151Z,11.05
2022-11-29T08:11:11.797Z,11.20
2022-11-29T08:13:38.155Z,10.20
2022-11-29T08:16:04.607Z,10.02
2022-11-29T08:18:31.014Z,10.57
2022-11-29T08:20:57.347Z,11.15
2022-11-29T08:23:23.629Z,10.55
2022-11-29T08:25:49.891Z,9.98
2022-11-29T08:28:16.213Z,10.07
2022-11-29T08:30:42.510Z,9.20
2022-11-29T08:33:08.898Z,10.20
2022-11-29T08:35:35.868Z,9.57
2022-11-29T08:38:03.765Z,11.13
2022-11-29T08:40:30.046Z,10.02
2022-11-29T08:42:59.516Z,9.52
2022-11-29T08:45:25.837Z,10.43
2022-11-29T08:47:52.204Z,8.90
2022-11-29T08:50:18.636Z,9.55
2022-11-29T08:53:04.687Z,8.52
2022-11-29T08:55:39.618Z,8.52
2022-11-29T08:58:07.110Z,9.93
2022-11-29T09:00:34.160Z,9.55
2022-11-29T09:03:21.585Z,9.23
2022-11-29T09:05:47.866Z,9.82
2022-11-29T09:08:14.146Z,8.68
2022-11-29T09:10:41.360Z,9.00
2022-11-29T09:13:08.516Z,9.25
2022-11-29T09:15:36.247Z,9.77
2022-11-29T09:18:04.130Z,9.20
2022-11-29T09:20:30.682Z,9.05
2022-11-29T09:22:58.161Z,8.32
2022-11-29T09:25:24.668Z,9.05
2022-11-29T09:27:51.692Z,8.43
2022-11-29T09:30:23.487Z,8.95
2022-11-29T09:32:50.263Z,7.78
2022-11-29T09:35:16.620Z,8.60
2022-11-29T09:37:43.592Z,8.75
2022-11-29T09:40:15.635Z,9.00
2022-11-29T09:42:44.683Z,7.75
2022-11-29T09:45:13.753Z,9.38
2022-11-29T09:47:46.140Z,9.20
2022-11-29T09:50:12.505Z,7.60
2022-11-29T09:52:51.219Z,9.77
2022-11-29T09:55:30.565Z,8.77
2022-11-29T09:57:58.333Z,9.07
2022-11-29T10:00:26.012Z,8.48
2022-11-29T10:03:02.189Z,8.00
2022-11-29T10:05:31.639Z,8.45
2022-11-29T10:08:16.234Z,8.38
2022-11-29T10:10:44.720Z,7.97
2022-11-29T10:13:11.028Z,9.35
2022-11-29T10:15:43.442Z,8.10
2022-11-29T10:18:16.886Z,8.50
2022-11-29T10:20:49.049Z,7.90
2022-11-29T10:23:20.355Z,9.90
2022-11-29T10:25:51.205Z,8.60
2022-11-29T10:30:43.952Z,7.47
2022-11-29T10:33:15.879Z,8.75
2022-11-29T10:35:42.273Z,8.45
2022-11-29T10:38:30.226Z,10.02
2022-11-29T10:41:06.570Z,10.40
2022-11-29T10:43:33.319Z,9.32
2022-11-29T10:46:00.308Z,9.43
